Time;durP1;ratioP1;P1;durP2;ratioP2;P2;SDS_P1;SDS_P2;PMS_P1;PMS_P2;Temp;Humidity;BMP_temperature;BMP_pressure;BME280_temperature;BME280_humidity;BME280_pressure;Samples;Min_cycle;Max_cycle;Signal;HPM_P1;HPM_P2
2022/08/06 00:00:59;;;;;;;;;;;;;;;14.18;78.82;101224.84;5027281;28;1405;-86
2022/08/06 00:03:28;;;;;;;;;;;;;;;14.54;78.18;101234.50;5023689;28;1862;-87
2022/08/06 00:06:02;;;;;;;;;;;;;;;14.55;77.04;101227.03;5039230;28;1856;-87
2022/08/06 00:08:33;;;;;;;;;;;;;;;14.52;78.34;101241.41;5027356;28;1578;-87
2022/08/06 00:11:01;;;;;;;;;;;;;;;14.47;78.11;101239.50;5012025;28;1489;-85
2022/08/06 00:13:42;;;;;;;;;;;;;;;14.46;78.05;101245.34;5022845;28;1400;-86
2022/08/06 00:16:14;;;;;;;;;;;;;;;14.38;77.98;101235.69;5023621;28;1592;-88
2022/08/06 00:18:50;;;;;;;;;;;;;;;14.38;78.39;101242.06;5010329;28;1821;-88
2022/08/06 00:27:25;;;;;;;;;;;;;;;14.38;78.38;101238.44;5000477;28;1578;-86
2022/08/06 00:29:50;;;;;;;;;;;;;;;14.25;78.11;101247.38;5040038;28;1611;-88
2022/08/06 00:32:29;;;;;;;;;;;;;;;14.35;78.87;101253.63;5029214;28;1628;-87
2022/08/06 00:37:46;;;;;;;;;;;;;;;14.05;78.65;101264.03;5029324;28;1707;-87
2022/08/06 00:40:15;;;;;;;;;;;;;;;14.15;78.48;101269.47;5040076;28;1523;-86
2022/08/06 00:42:44;;;;;;;;;;;;;;;14.13;78.25;101278.00;5023844;28;1894;-86
2022/08/06 00:45:53;;;;;;;;;;;;;;;14.34;77.96;101282.28;5023396;28;1592;-88
2022/08/06 00:51:16;;;;;;;;;;;;;;;;;;;;;
2022/08/06 00:54:04;;;;;;;;;;;;;;;13.85;79.86;101293.34;5011247;28;1706;-86
2022/08/06 01:00:30;;;;;;;;;;;;;;;;;;;;;
2022/08/06 01:03:40;;;;;;;;;;;;;;;;;;;;;
2022/08/06 01:09:14;;;;;;;;;;;;;;;13.83;79.08;101300.22;4977055;28;1872;-87
2022/08/06 01:11:54;;;;;;;;;;;;;;;13.43;79.07;101299.28;4978156;28;1576;-85
2022/08/06 01:14:57;;;;;;;;;;;;;;;13.57;79.24;101291.25;4986618;28;1591;-87
2022/08/06 01:17:26;;;;;;;;;;;;;;;13.27;80.52;101299.63;4994645;28;1743;-87
2022/08/06 01:20:10;;;;;;;;;;;;;;;13.44;80.97;101302.88;5034396;28;1730;-89
2022/08/06 01:22:47;;;;;;;;;;;;;;;13.40;80.13;101293.50;5013876;28;1879;-89
2022/08/06 01:25:39;;;;;;;;;;;;;;;13.35;79.48;101297.13;5022869;28;1710;-86
2022/08/06 01:28:07;;;;;;;;;;;;;;;13.54;79.83;101297.31;5033110;28;1772;-87
2022/08/06 01:30:37;;;;;;;;;;;;;;;13.42;79.86;101297.63;5040319;28;1353;-85
2022/08/06 01:36:17;;;;;;;;;;;;;;;13.34;80.85;101302.88;5020862;28;1746;-88
2022/08/06 01:38:45;;;;;;;;;;;;;;;13.47;79.69;101296.78;5013780;28;1872;-86
2022/08/06 01:41:38;;;;;;;;;;;;;;;13.27;81.06;101285.88;5027164;28;1883;-87
2022/08/06 01:44:08;;;;;;;;;;;;;;;13.32;81.02;101299.59;5031149;28;1577;-88
2022/08/06 01:46:35;;;;;;;;;;;;;;;13.23;81.47;101308.41;5025244;28;1290;-86
2022/08/06 01:49:10;;;;;;;;;;;;;;;13.29;80.81;101300.97;5011473;28;1627;-86
2022/08/06 01:55:18;;;;;;;;;;;;;;;;;;;;;
2022/08/06 02:01:20;;;;;;;;;;;;;;;13.00;79.41;101297.97;4988782;28;1501;-85
2022/08/06 02:10:33;;;;;;;;;;;;;;;12.72;81.12;101304.88;4968219;28;1407;-86
2022/08/06 02:13:20;;;;;;;;;;;;;;;12.61;80.39;101302.38;4965356;28;1777;-85
2022/08/06 02:16:10;;;;;;;;;;;;;;;12.57;81.37;101307.63;5010072;28;1554;-87
2022/08/06 02:18:44;;;;;;;;;;;;;;;12.70;81.32;101300.75;5028055;28;1697;-88
2022/08/06 02:21:15;;;;;;;;;;;;;;;12.60;81.15;101306.22;5015467;28;1875;-86
2022/08/06 02:23:55;;;;;;;;;;;;;;;12.53;81.96;101306.50;5010066;28;1517;-86
2022/08/06 02:26:24;;;;;;;;;;;;;;;12.54;81.63;101310.06;5023387;28;1937;-86
2022/08/06 02:28:51;;;;;;;;;;;;;;;12.58;81.89;101311.19;5025971;28;1837;-86
2022/08/06 02:31:16;;;;;;;;;;;;;;;12.51;82.25;101315.00;5030848;28;1576;-86
2022/08/06 02:33:41;;;;;;;;;;;;;;;12.85;81.64;101318.03;5032440;28;1508;-87
2022/08/06 02:36:18;;;;;;;;;;;;;;;12.97;79.31;101316.94;5029417;28;1683;-87
2022/08/06 02:38:55;;;;;;;;;;;;;;;12.86;79.01;101321.59;5019137;28;1602;-87
2022/08/06 02:41:36;;;;;;;;;;;;;;;12.70;79.92;101325.47;5022345;28;1921;-86
2022/08/06 02:44:05;;;;;;;;;;;;;;;12.53;80.31;101331.22;5024618;28;1316;-87
2022/08/06 02:46:42;;;;;;;;;;;;;;;12.36;80.37;101333.38;5020766;28;1492;-85
2022/08/06 02:49:41;;;;;;;;;;;;;;;12.27;80.32;101332.28;5021263;28;1227;-87
2022/08/06 02:59:17;;;;;;;;;;;;;;;12.55;80.07;101339.19;4952674;29;1792;-85
2022/08/06 03:20:50;;;;;;;;;;;;;;;12.52;80.06;101371.59;4792636;29;1833;-87
2022/08/06 03:36:08;;;;;;;;;;;;;;;;;;;;;
2022/08/06 03:42:34;;;;;;;;;;;;;;;;;;;;;
2022/08/06 03:54:45;;;;;;;;;;;;;;;11.77;80.66;101417.97;4985971;28;1686;-86
2022/08/06 03:57:12;;;;;;;;;;;;;;;11.82;80.58;101423.50;5013789;28;2001;-85
2022/08/06 03:59:39;;;;;;;;;;;;;;;11.86;80.09;101419.13;5024268;28;1683;-86
2022/08/06 04:02:05;;;;;;;;;;;;;;;11.89;79.68;101421.34;5027447;28;1890;-88
2022/08/06 04:04:32;;;;;;;;;;;;;;;11.77;80.19;101420.72;5027966;28;1579;-87
2022/08/06 04:06:58;;;;;;;;;;;;;;;11.65;80.79;101429.13;5026547;28;1668;-84
2022/08/06 04:09:25;;;;;;;;;;;;;;;11.65;81.13;101424.44;5030250;28;1632;-85
2022/08/06 04:11:56;;;;;;;;;;;;;;;11.61;80.40;101428.00;5030040;28;1663;-85
2022/08/06 04:14:22;;;;;;;;;;;;;;;11.78;80.82;101428.69;5024105;28;1591;-87
2022/08/06 04:16:48;;;;;;;;;;;;;;;11.69;79.97;101435.72;5041252;28;1304;-87
2022/08/06 04:19:14;;;;;;;;;;;;;;;11.66;80.44;101439.81;5015552;28;1512;-86
2022/08/06 04:21:39;;;;;;;;;;;;;;;11.55;80.57;101448.25;5026225;28;1867;-86
2022/08/06 04:24:05;;;;;;;;;;;;;;;11.47;80.93;101454.25;5019879;28;1893;-86
2022/08/06 04:26:34;;;;;;;;;;;;;;;11.66;81.12;101455.44;5025821;28;1829;-85
2022/08/06 04:35:39;;;;;;;;;;;;;;;11.52;81.49;101457.00;5015763;28;1825;-86
2022/08/06 04:57:34;;;;;;;;;;;;;;;11.29;83.37;101475.47;5024232;28;1614;-88
2022/08/06 05:03:37;;;;;;;;;;;;;;;11.26;84.46;101484.22;4986084;28;1879;-86
2022/08/06 05:09:41;;;;;;;;;;;;;;;11.61;84.09;101485.59;4978480;28;1612;-86
2022/08/06 05:12:11;;;;;;;;;;;;;;;11.89;83.25;101495.41;4971484;28;1060;-88
2022/08/06 05:14:54;;;;;;;;;;;;;;;11.93;82.86;101502.84;5000534;28;1880;-89
2022/08/06 05:17:22;;;;;;;;;;;;;;;11.97;83.03;101501.22;5035730;28;1416;-89
2022/08/06 05:19:58;;;;;;;;;;;;;;;12.02;82.83;101494.94;5020915;28;1873;-89
2022/08/06 05:22:24;;;;;;;;;;;;;;;11.94;83.39;101499.00;5020878;28;1909;-86
2022/08/06 05:24:50;;;;;;;;;;;;;;;12.04;83.42;101501.81;5014400;28;1912;-88
2022/08/06 05:27:15;;;;;;;;;;;;;;;12.10;83.29;101502.66;5005700;28;1583;-89
2022/08/06 05:29:40;;;;;;;;;;;;;;;12.15;83.97;101501.88;5022894;28;1888;-86
2022/08/06 05:32:06;;;;;;;;;;;;;;;12.13;84.46;101508.44;5015896;28;1640;-87
2022/08/06 05:34:31;;;;;;;;;;;;;;;12.19;84.46;101501.06;5009350;28;1481;-87
2022/08/06 05:36:56;;;;;;;;;;;;;;;12.32;84.90;101508.00;5016968;28;1295;-88
2022/08/06 05:39:22;;;;;;;;;;;;;;;12.36;85.46;101509.94;5016965;28;1512;-88
2022/08/06 05:41:48;;;;;;;;;;;;;;;12.49;84.93;101514.13;5016837;28;1879;-88
2022/08/06 05:44:13;;;;;;;;;;;;;;;12.50;84.71;101511.06;5002924;28;1650;-89
2022/08/06 05:46:45;;;;;;;;;;;;;;;12.50;84.82;101516.56;5017672;28;1945;-89
2022/08/06 05:49:15;;;;;;;;;;;;;;;12.54;85.08;101524.28;5002357;28;1588;-86
2022/08/06 05:51:46;;;;;;;;;;;;;;;12.60;85.01;101523.19;5015921;28;1787;-88
2022/08/06 05:54:29;;;;;;;;;;;;;;;12.65;85.68;101520.50;5007433;28;1568;-89
2022/08/06 05:56:58;;;;;;;;;;;;;;;12.72;86.70;101524.63;5012094;28;1306;-89
2022/08/06 05:59:26;;;;;;;;;;;;;;;12.77;87.58;101526.56;5019660;28;1428;-88
2022/08/06 06:01:51;;;;;;;;;;;;;;;12.80;88.10;101537.00;5016477;28;1893;-87
2022/08/06 06:04:18;;;;;;;;;;;;;;;12.88;88.02;101533.75;5010953;28;1560;-89
2022/08/06 06:06:43;;;;;;;;;;;;;;;12.95;88.80;101536.22;5017439;28;1534;-88
2022/08/06 06:09:09;;;;;;;;;;;;;;;13.00;87.79;101534.34;5016853;28;1581;-88
2022/08/06 06:11:36;;;;;;;;;;;;;;;12.99;87.81;101526.34;5002759;28;1287;-91
2022/08/06 06:14:02;;;;;;;;;;;;;;;13.01;88.15;101530.50;5014721;28;1594;-88
2022/08/06 06:16:31;;;;;;;;;;;;;;;13.05;88.54;101530.75;5010277;28;1461;-85
2022/08/06 06:19:11;;;;;;;;;;;;;;;13.11;87.81;101533.25;5017986;28;1770;-87
2022/08/06 06:21:45;;;;;;;;;;;;;;;13.13;89.02;101536.56;4998744;28;1902;-87
2022/08/06 06:24:29;;;;;;;;;;;;;;;13.12;89.07;101531.31;5011931;28;1370;-86
2022/08/06 06:26:54;;;;;;;;;;;;;;;13.12;88.42;101536.81;5019035;28;1430;-87
2022/08/06 06:29:40;;;;;;;;;;;;;;;13.20;88.32;101534.38;5018326;28;818;-87
2022/08/06 06:32:15;;;;;;;;;;;;;;;13.24;86.86;101537.44;5017300;28;1624;-88
2022/08/06 06:34:47;;;;;;;;;;;;;;;13.32;86.49;101536.06;5011286;28;1276;-88
2022/08/06 06:37:19;;;;;;;;;;;;;;;13.37;86.69;101538.81;5011191;28;1636;-88
2022/08/06 06:40:04;;;;;;;;;;;;;;;13.13;86.43;101495.34;5008282;28;1644;-86
2022/08/06 06:42:34;;;;;;;;;;;;;;;13.43;87.05;101532.22;4997711;28;1902;-88
2022/08/06 06:45:04;;;;;;;;;;;;;;;13.48;86.58;101535.78;5014760;28;1047;-87
2022/08/06 06:47:36;;;;;;;;;;;;;;;13.53;86.57;101537.72;5009303;28;1645;-87
2022/08/06 06:50:11;;;;;;;;;;;;;;;13.55;86.80;101541.84;5002986;28;1439;-87
2022/08/06 06:52:38;;;;;;;;;;;;;;;13.60;86.33;101544.59;5012696;28;1440;-86
2022/08/06 06:55:06;;;;;;;;;;;;;;;13.62;86.91;101547.88;5013680;28;1330;-86
2022/08/06 06:57:34;;;;;;;;;;;;;;;13.67;87.08;101549.84;5016076;28;1178;-87
2022/08/06 07:00:03;;;;;;;;;;;;;;;13.71;86.66;101555.59;5014955;28;1512;-87
2022/08/06 07:02:31;;;;;;;;;;;;;;;13.75;86.55;101553.94;5014277;28;1943;-87
2022/08/06 07:04:56;;;;;;;;;;;;;;;13.77;85.78;101557.25;5015481;28;1078;-87
2022/08/06 07:07:23;;;;;;;;;;;;;;;13.77;85.87;101555.34;5004157;28;1267;-87
2022/08/06 07:09:50;;;;;;;;;;;;;;;13.81;86.14;101548.16;4997619;28;1016;-87
2022/08/06 07:12:18;;;;;;;;;;;;;;;13.85;85.79;101553.94;4998571;28;814;-85
2022/08/06 07:14:44;;;;;;;;;;;;;;;13.86;85.64;101552.84;5016858;28;1214;-87
2022/08/06 07:17:10;;;;;;;;;;;;;;;13.91;85.75;101558.34;5015943;28;1499;-86
2022/08/06 07:19:36;;;;;;;;;;;;;;;13.94;83.63;101541.28;5015354;28;1424;-87
2022/08/06 07:22:02;;;;;;;;;;;;;;;13.98;84.37;101554.19;5017426;28;1945;-87
2022/08/06 07:24:30;;;;;;;;;;;;;;;13.99;83.05;101547.59;5015365;28;1793;-86
2022/08/06 07:26:56;;;;;;;;;;;;;;;14.02;83.94;101557.22;5017387;28;1270;-88
2022/08/06 07:29:23;;;;;;;;;;;;;;;14.07;82.54;101562.72;5012885;28;1221;-86
2022/08/06 07:31:49;;;;;;;;;;;;;;;14.09;83.30;101560.53;5016459;28;1020;-88
2022/08/06 07:34:14;;;;;;;;;;;;;;;14.11;83.58;101561.06;5010331;28;1590;-87
2022/08/06 07:36:44;;;;;;;;;;;;;;;14.17;82.93;101570.97;5008540;28;1802;-87
2022/08/06 07:39:10;;;;;;;;;;;;;;;14.21;83.70;101571.22;5014107;28;1365;-86
2022/08/06 07:41:36;;;;;;;;;;;;;;;14.25;84.09;101572.31;5004065;28;2214;-86
2022/08/06 07:44:02;;;;;;;;;;;;;;;14.31;82.65;101571.19;5000891;28;1684;-88
2022/08/06 07:46:30;;;;;;;;;;;;;;;14.37;81.18;101570.09;5014051;28;1112;-87
2022/08/06 07:48:59;;;;;;;;;;;;;;;14.40;82.55;101575.06;5011801;28;1074;-88
2022/08/06 07:51:26;;;;;;;;;;;;;;;14.48;83.75;101566.22;5000601;28;1567;-88
2022/08/06 07:53:52;;;;;;;;;;;;;;;14.56;83.28;101573.09;5002509;28;1103;-88
2022/08/06 07:56:18;;;;;;;;;;;;;;;14.69;83.15;101570.56;5015036;28;1645;-87
2022/08/06 07:58:44;;;;;;;;;;;;;;;14.76;81.88;101562.00;5004143;28;1228;-90
2022/08/06 08:01:09;;;;;;;;;;;;;;;14.83;81.30;101564.44;5003161;28;1718;-89
2022/08/06 08:06:24;;;;;;;;;;;;;;;14.88;79.93;101564.44;5009588;28;1095;-88
2022/08/06 08:08:52;;;;;;;;;;;;;;;14.99;81.26;101566.00;5017587;28;1184;-88
2022/08/06 08:11:17;;;;;;;;;;;;;;;15.03;81.08;101562.41;5015698;28;905;-87
2022/08/06 08:13:42;;;;;;;;;;;;;;;15.00;77.79;101571.25;5007446;28;1380;-86
2022/08/06 08:16:08;;;;;;;;;;;;;;;14.96;76.97;101570.16;4997164;28;798;-87
2022/08/06 08:18:34;;;;;;;;;;;;;;;15.03;79.27;101572.59;4997020;28;1572;-89
2022/08/06 08:21:00;;;;;;;;;;;;;;;15.15;79.64;101578.59;5006278;28;1443;-87
2022/08/06 08:23:26;;;;;;;;;;;;;;;15.27;80.34;101573.56;5018959;28;1875;-88
2022/08/06 08:25:52;;;;;;;;;;;;;;;15.31;78.78;101571.88;5018458;28;1012;-88
2022/08/06 08:28:17;;;;;;;;;;;;;;;15.37;78.11;101576.25;5017531;28;1174;-87
2022/08/06 08:30:43;;;;;;;;;;;;;;;15.50;79.39;101575.59;5017398;28;1459;-88
2022/08/06 08:33:09;;;;;;;;;;;;;;;15.60;78.36;101576.66;5018411;28;897;-88
2022/08/06 08:35:34;;;;;;;;;;;;;;;15.58;76.59;101571.44;5019729;28;829;-88
2022/08/06 08:37:59;;;;;;;;;;;;;;;15.61;76.74;101581.91;5020480;28;1198;-88
2022/08/06 08:40:26;;;;;;;;;;;;;;;15.69;76.17;101574.94;5010157;28;1494;-86
2022/08/06 08:42:55;;;;;;;;;;;;;;;15.51;74.85;101574.50;5012786;28;1874;-85
2022/08/06 08:45:21;;;;;;;;;;;;;;;15.48;72.58;101566.78;5014601;28;897;-86
2022/08/06 08:47:49;;;;;;;;;;;;;;;15.52;74.00;101578.09;5017273;28;1481;-87
2022/08/06 08:50:15;;;;;;;;;;;;;;;15.69;71.17;101573.00;5009370;28;1491;-86
2022/08/06 08:52:43;;;;;;;;;;;;;;;15.78;71.88;101581.50;4998983;28;794;-86
2022/08/06 08:55:11;;;;;;;;;;;;;;;15.88;70.99;101568.44;4998685;28;1008;-86
2022/08/06 08:57:36;;;;;;;;;;;;;;;15.94;70.66;101574.72;4997487;28;1312;-87
2022/08/06 09:00:03;;;;;;;;;;;;;;;16.04;70.79;101577.41;5005234;28;1407;-86
2022/08/06 09:02:28;;;;;;;;;;;;;;;16.07;70.86;101576.00;5017789;28;1887;-87
2022/08/06 09:04:53;;;;;;;;;;;;;;;16.13;70.71;101574.81;5016533;28;826;-87
2022/08/06 09:07:19;;;;;;;;;;;;;;;16.10;73.59;101586.44;5017761;28;1190;-87
2022/08/06 09:09:44;;;;;;;;;;;;;;;16.06;69.92;101577.13;5013957;28;1475;-86
2022/08/06 09:12:10;;;;;;;;;;;;;;;15.96;68.65;101580.78;4998656;28;976;-86
2022/08/06 09:14:35;;;;;;;;;;;;;;;15.84;69.22;101572.06;4998590;28;869;-87
2022/08/06 09:17:02;;;;;;;;;;;;;;;15.73;67.51;101570.50;4997022;28;1329;-86
2022/08/06 09:19:29;;;;;;;;;;;;;;;15.70;70.11;101571.91;4999056;28;1453;-87
2022/08/06 09:21:55;;;;;;;;;;;;;;;15.83;68.13;101565.69;5017451;28;1949;-86
2022/08/06 09:24:20;;;;;;;;;;;;;;;15.94;70.60;101573.91;5018319;28;999;-88
2022/08/06 09:27:01;;;;;;;;;;;;;;;15.93;69.93;101570.31;5018596;28;1278;-88
2022/08/06 09:29:26;;;;;;;;;;;;;;;15.93;70.27;101570.31;5017434;28;1437;-88
2022/08/06 09:31:51;;;;;;;;;;;;;;;15.93;70.71;101567.56;4998098;28;983;-88
2022/08/06 09:34:17;;;;;;;;;;;;;;;15.85;70.56;101577.28;4997392;28;972;-86
2022/08/06 09:36:43;;;;;;;;;;;;;;;15.80;70.44;101573.75;4997788;28;1242;-87
2022/08/06 09:39:08;;;;;;;;;;;;;;;15.73;71.41;101573.28;4998274;28;933;-88
2022/08/06 09:41:34;;;;;;;;;;;;;;;15.72;69.23;101577.13;4997746;28;1959;-87
2022/08/06 09:44:09;;;;;;;;;;;;;;;15.70;72.16;101576.59;4999278;28;857;-87
2022/08/06 09:47:00;;;;;;;;;;;;;;;15.89;69.99;101575.59;5000544;28;1295;-86
2022/08/06 09:49:26;;;;;;;;;;;;;;;16.04;69.79;101571.03;4995735;28;1673;-87
2022/08/06 09:52:09;;;;;;;;;;;;;;;16.11;71.10;101568.75;4997444;28;1403;-85
2022/08/06 09:54:37;;;;;;;;;;;;;;;16.30;69.75;101564.16;4997875;28;530;-87
2022/08/06 09:57:03;;;;;;;;;;;;;;;16.35;70.02;101561.31;4996349;28;1192;-88
2022/08/06 09:59:28;;;;;;;;;;;;;;;16.44;71.88;101555.97;4997566;28;989;-88
2022/08/06 10:01:53;;;;;;;;;;;;;;;16.54;66.83;101556.69;4998254;28;1894;-87
2022/08/06 10:04:25;;;;;;;;;;;;;;;16.56;62.48;101557.22;4997127;28;827;-88
2022/08/06 10:06:53;;;;;;;;;;;;;;;16.63;62.50;101565.19;4997130;28;1202;-87
2022/08/06 10:09:18;;;;;;;;;;;;;;;16.76;60.17;101555.34;4997797;28;838;-87
2022/08/06 10:11:43;;;;;;;;;;;;;;;16.80;60.62;101548.09;5011913;28;1409;-85
2022/08/06 10:14:21;;;;;;;;;;;;;;;16.82;62.53;101551.41;5016959;28;1406;-86
2022/08/06 10:17:02;;;;;;;;;;;;;;;16.83;63.62;101550.28;5017875;28;1293;-86
2022/08/06 10:19:27;;;;;;;;;;;;;;;16.87;62.86;101559.63;5017976;28;1004;-86
2022/08/06 10:21:53;;;;;;;;;;;;;;;16.89;62.63;101558.22;4998915;28;1886;-88
2022/08/06 10:24:19;;;;;;;;;;;;;;;16.74;59.83;101550.13;4997368;28;969;-85
2022/08/06 10:26:45;;;;;;;;;;;;;;;16.71;59.94;101556.22;4998203;28;1294;-87
2022/08/06 10:29:11;;;;;;;;;;;;;;;16.63;63.09;101571.53;4997745;28;932;-87
2022/08/06 10:31:36;;;;;;;;;;;;;;;16.68;65.61;101570.63;5012486;28;1654;-85
2022/08/06 10:34:01;;;;;;;;;;;;;;;16.75;66.07;101567.53;5017193;28;1039;-89
2022/08/06 10:36:49;;;;;;;;;;;;;;;16.77;65.44;101563.34;5017483;28;965;-87
2022/08/06 10:39:14;;;;;;;;;;;;;;;16.92;60.99;101556.78;5016852;28;1094;-86
2022/08/06 10:41:40;;;;;;;;;;;;;;;17.09;61.83;101556.28;5016533;28;1906;-87
2022/08/06 10:44:05;;;;;;;;;;;;;;;17.18;62.45;101551.72;5015592;28;818;-86
2022/08/06 10:46:31;;;;;;;;;;;;;;;17.27;66.06;101549.91;5017421;28;1186;-87
2022/08/06 10:48:56;;;;;;;;;;;;;;;17.16;66.65;101549.25;5017506;28;928;-86
2022/08/06 10:51:23;;;;;;;;;;;;;;;17.08;65.26;101551.88;5016195;28;1400;-88
2022/08/06 10:53:48;;;;;;;;;;;;;;;17.09;64.97;101553.53;5015984;28;975;-87
2022/08/06 10:56:14;;;;;;;;;;;;;;;17.25;64.19;101560.47;5015774;28;913;-87
2022/08/06 10:58:40;;;;;;;;;;;;;;;17.39;64.47;101548.34;5016204;28;1214;-88
2022/08/06 11:01:07;;;;;;;;;;;;;;;17.38;68.10;101545.88;5013297;28;1404;-86
2022/08/06 11:03:41;;;;;;;;;;;;;;;17.32;67.18;101550.69;5017454;28;1894;-88
2022/08/06 11:06:19;;;;;;;;;;;;;;;17.26;66.41;101565.72;5016015;28;1051;-88
2022/08/06 11:08:57;;;;;;;;;;;;;;;17.22;64.31;101555.53;5015395;28;1219;-86
2022/08/06 11:11:41;;;;;;;;;;;;;;;17.19;64.37;101558.88;5014388;28;1459;-87
2022/08/06 11:14:08;;;;;;;;;;;;;;;17.34;62.33;101550.38;5014463;28;1247;-87
2022/08/06 11:16:35;;;;;;;;;;;;;;;17.50;63.49;101548.19;5016429;28;1289;-88
2022/08/06 11:19:05;;;;;;;;;;;;;;;17.54;64.52;101541.72;5016779;28;865;-87
2022/08/06 11:21:38;;;;;;;;;;;;;;;17.54;63.29;101550.03;5003615;28;1965;-88
2022/08/06 11:24:03;;;;;;;;;;;;;;;17.63;57.45;101551.03;4996484;28;814;-87
2022/08/06 11:26:39;;;;;;;;;;;;;;;17.65;60.32;101545.19;4996774;28;1153;-88
2022/08/06 11:29:08;;;;;;;;;;;;;;;17.77;59.39;101537.25;4996622;28;861;-88
2022/08/06 11:31:38;;;;;;;;;;;;;;;17.92;61.51;101536.97;5007189;28;1586;-86
2022/08/06 11:34:05;;;;;;;;;;;;;;;18.05;62.20;101532.56;5040254;23;1882;-83
2022/08/06 11:36:42;;;;;;;;;;;;;;;18.09;56.94;101541.94;5018608;28;703;-84
2022/08/06 11:39:07;;;;;;;;;;;;;;;18.00;59.12;101540.97;5018536;28;924;-85
2022/08/06 11:41:43;;;;;;;;;;;;;;;17.86;56.00;101540.13;5015587;28;1905;-84
2022/08/06 11:44:08;;;;;;;;;;;;;;;17.75;56.57;101548.63;5016431;28;1368;-84
2022/08/06 11:46:35;;;;;;;;;;;;;;;17.63;57.38;101542.72;5016774;28;1295;-84
2022/08/06 11:49:00;;;;;;;;;;;;;;;17.54;57.73;101547.28;5017024;28;1220;-85
2022/08/06 11:51:39;;;;;;;;;;;;;;;17.52;55.94;101541.25;5016723;28;1429;-83
2022/08/06 11:54:08;;;;;;;;;;;;;;;17.56;56.62;101547.78;5018312;28;1181;-84
2022/08/06 11:56:33;;;;;;;;;;;;;;;17.54;58.80;101550.03;5018431;28;1023;-83
2022/08/06 11:59:14;;;;;;;;;;;;;;;17.70;59.73;101540.38;5017106;28;1204;-83
2022/08/06 12:01:46;;;;;;;;;;;;;;;17.98;57.43;101546.00;5016246;28;1868;-83
2022/08/06 12:04:30;;;;;;;;;;;;;;;18.12;57.13;101536.56;5016043;28;1292;-84
2022/08/06 12:07:13;;;;;;;;;;;;;;;18.28;59.80;101531.59;5018405;28;991;-83
2022/08/06 12:09:38;;;;;;;;;;;;;;;18.40;60.70;101542.97;5018291;28;822;-83
2022/08/06 12:12:22;;;;;;;;;;;;;;;18.28;60.87;101534.34;5015405;28;1786;-83
2022/08/06 12:14:47;;;;;;;;;;;;;;;18.13;60.60;101537.41;5008526;28;1968;-84
2022/08/06 12:17:12;;;;;;;;;;;;;;;18.01;61.03;101543.44;5017802;28;1271;-84
2022/08/06 12:19:41;;;;;;;;;;;;;;;17.98;57.13;101548.78;5017723;28;924;-84
2022/08/06 12:22:07;;;;;;;;;;;;;;;17.96;57.38;101548.25;5016527;28;1986;-84
2022/08/06 12:24:32;;;;;;;;;;;;;;;17.94;56.03;101545.81;5015878;28;1361;-83
2022/08/06 12:26:58;;;;;;;;;;;;;;;18.21;54.71;101539.47;5017167;28;1479;-84
2022/08/06 12:29:29;;;;;;;;;;;;;;;18.40;57.31;101533.84;5017161;28;1218;-84
2022/08/06 12:31:54;;;;;;;;;;;;;;;18.56;57.36;101532.38;5016314;28;1542;-83
2022/08/06 12:34:24;;;;;;;;;;;;;;;18.50;56.99;101537.22;5015955;28;1647;-83
2022/08/06 12:36:49;;;;;;;;;;;;;;;18.68;57.03;101529.13;5018085;28;833;-85
2022/08/06 12:39:14;;;;;;;;;;;;;;;18.84;54.69;101524.91;5018088;28;785;-83
2022/08/06 12:41:41;;;;;;;;;;;;;;;18.96;54.63;101521.59;5016164;28;1898;-83
2022/08/06 12:44:06;;;;;;;;;;;;;;;19.05;53.91;101511.41;5016299;28;1317;-83
2022/08/06 12:46:31;;;;;;;;;;;;;;;19.17;53.73;101518.03;5015821;28;1366;-83
2022/08/06 12:48:57;;;;;;;;;;;;;;;18.97;49.89;101512.13;5018288;28;782;-83
2022/08/06 12:51:22;;;;;;;;;;;;;;;18.77;50.43;101503.13;5016067;28;1515;-84
2022/08/06 12:53:48;;;;;;;;;;;;;;;18.67;51.93;101510.84;5016349;28;1358;-84
2022/08/06 12:56:14;;;;;;;;;;;;;;;18.76;52.92;101504.25;5017965;28;991;-83
2022/08/06 12:58:41;;;;;;;;;;;;;;;18.89;51.23;101508.13;5016645;28;1288;-84
2022/08/06 13:01:07;;;;;;;;;;;;;;;18.74;51.31;101512.06;5017782;28;1663;-83
2022/08/06 13:03:34;;;;;;;;;;;;;;;18.79;54.31;101511.97;5017782;28;1953;-84
2022/08/06 13:06:01;;;;;;;;;;;;;;;18.94;52.57;101516.34;5018328;28;864;-84
2022/08/06 13:08:27;;;;;;;;;;;;;;;19.19;53.87;101512.16;5017520;28;1727;-84
2022/08/06 13:10:54;;;;;;;;;;;;;;;19.39;52.45;101506.13;5017226;28;1294;-84
2022/08/06 13:13:19;;;;;;;;;;;;;;;19.52;50.95;101510.00;5017771;28;1423;-84
2022/08/06 13:16:01;;;;;;;;;;;;;;;19.66;49.64;101505.19;5016266;28;1307;-83
2022/08/06 13:18:26;;;;;;;;;;;;;;;19.87;52.84;101508.25;5017845;28;932;-84
2022/08/06 13:20:52;;;;;;;;;;;;;;;19.91;50.26;101500.91;5016172;28;1207;-82
2022/08/06 13:23:29;;;;;;;;;;;;;;;19.95;50.09;101505.53;5015909;28;1870;-84
2022/08/06 13:25:54;;;;;;;;;;;;;;;19.68;51.47;101510.44;5017854;28;1054;-84
2022/08/06 13:28:21;;;;;;;;;;;;;;;19.46;53.63;101500.94;5016553;28;948;-82
2022/08/06 13:30:46;;;;;;;;;;;;;;;19.36;52.84;101508.72;5018386;28;955;-84
2022/08/06 13:33:13;;;;;;;;;;;;;;;20.88;49.19;101502.59;5003838;28;1482;-84
2022/08/06 13:35:38;;;;;;;;;;;;;;;24.48;43.13;101502.78;5019249;28;1210;-85
2022/08/06 13:38:03;;;;;;;;;;;;;;;26.47;39.96;101497.31;5018924;28;1422;-83
2022/08/06 13:40:58;;;;;;;;;;;;;;;27.45;36.67;101495.94;5020292;28;1011;-85
2022/08/06 13:43:41;;;;;;;;;;;;;;;27.81;35.60;101482.59;5021489;28;1940;-85
2022/08/06 13:46:07;;;;;;;;;;;;;;;27.17;37.89;101481.28;5021215;28;836;-85
2022/08/06 13:48:32;;;;;;;;;;;;;;;24.66;39.46;101478.16;5020697;28;864;-83
2022/08/06 13:50:57;;;;;;;;;;;;;;;23.00;40.86;101480.31;5019992;28;1261;-85
2022/08/06 13:53:22;;;;;;;;;;;;;;;22.17;41.32;101491.31;5019097;28;1387;-83
2022/08/06 13:55:48;;;;;;;;;;;;;;;21.74;43.98;101487.81;5020070;28;1179;-84
2022/08/06 13:58:13;;;;;;;;;;;;;;;21.54;45.34;101486.53;5020742;28;887;-84
2022/08/06 14:00:39;;;;;;;;;;;;;;;21.35;46.97;101486.88;5021099;28;991;-83
2022/08/06 14:03:04;;;;;;;;;;;;;;;21.37;46.05;101486.56;5011994;28;1933;-84
2022/08/06 14:05:29;;;;;;;;;;;;;;;21.23;46.81;101485.94;5021210;28;1098;-84
2022/08/06 14:07:54;;;;;;;;;;;;;;;21.34;47.25;101478.88;5019790;28;1196;-84
2022/08/06 14:10:20;;;;;;;;;;;;;;;21.27;45.87;101484.09;5021596;28;866;-83
2022/08/06 14:13:15;;;;;;;;;;;;;;;21.22;46.42;101473.16;5019173;28;1894;-83
2022/08/06 14:15:31;;;;;;;;;;;;;;;21.24;45.33;101477.25;5014258;28;1474;-83
2022/08/06 14:17:56;;;;;;;;;;;;;;;21.23;45.02;101472.81;5017859;28;1265;-84
2022/08/06 14:20:21;;;;;;;;;;;;;;;21.54;43.79;101467.03;5019461;28;797;-84
2022/08/06 14:22:46;;;;;;;;;;;;;;;21.45;43.96;101464.25;5018508;28;1940;-83
2022/08/06 14:25:12;;;;;;;;;;;;;;;21.13;46.21;101461.97;5019455;28;1039;-85
2022/08/06 14:27:37;;;;;;;;;;;;;;;21.02;46.32;101475.41;5018003;28;917;-83
2022/08/06 14:30:02;;;;;;;;;;;;;;;20.92;46.04;101475.75;5019927;28;904;-84
2022/08/06 14:32:27;;;;;;;;;;;;;;;20.92;45.96;101467.41;5012085;28;1407;-82
2022/08/06 14:34:55;;;;;;;;;;;;;;;20.93;46.30;101471.78;4999656;28;999;-83
2022/08/06 14:37:20;;;;;;;;;;;;;;;20.99;46.31;101466.91;5000145;28;865;-83
2022/08/06 14:39:45;;;;;;;;;;;;;;;20.99;46.21;101464.94;4999996;28;882;-82
2022/08/06 14:44:54;;;;;;;;;;;;;;;20.85;47.15;101466.22;4999185;28;656;-84
2022/08/06 14:47:19;;;;;;;;;;;;;;;20.72;46.34;101460.50;4999323;28;889;-84
2022/08/06 14:49:45;;;;;;;;;;;;;;;20.67;47.66;101460.63;4999325;28;1112;-84
2022/08/06 14:52:10;;;;;;;;;;;;;;;20.55;48.29;101465.22;5013574;28;1467;-84
2022/08/06 14:54:36;;;;;;;;;;;;;;;20.47;48.09;101455.72;5010562;28;1133;-83
2022/08/06 14:57:05;;;;;;;;;;;;;;;20.37;49.98;101448.50;5017390;28;1239;-83
2022/08/06 14:59:30;;;;;;;;;;;;;;;20.41;48.96;101453.41;5019053;28;944;-84
2022/08/06 15:01:56;;;;;;;;;;;;;;;20.54;47.17;101446.88;5015906;28;1886;-84
2022/08/06 15:04:21;;;;;;;;;;;;;;;20.67;46.41;101435.59;5016358;28;1417;-84
2022/08/06 15:06:46;;;;;;;;;;;;;;;20.63;47.09;101439.38;5017806;28;1427;-83
2022/08/06 15:09:11;;;;;;;;;;;;;;;20.61;50.75;101441.66;5017804;28;1154;-83
2022/08/06 15:11:37;;;;;;;;;;;;;;;20.69;49.71;101429.72;5019023;28;995;-83
2022/08/06 15:14:02;;;;;;;;;;;;;;;20.82;49.45;101436.28;5018451;28;1530;-83